Ever Legion — 9V9725 — position and weather

sailwx.info

Track history (hours):
 
Tides and Currents Weather Stations Pressure Air Temp Water Temp Dewpoint Dewpoint Depression Visibility Wind Speed Wind Dir Waves Ship Positions

Ever Legion

Last reported at 2017-Sep-22 06:00 UTC. Time now 2017-Sep-24 10:16 UTC.
Position N 10°12' W 079°30'.

Length 335 m; draft 12.1 m.

Type: Ship (hazmat cat A). MMSI: 566970000.

Wind from 230 at 4 knots

Barometer 1014.0 mb
Air temperature 29.8 ° C
Visibility: greater than 10.8 NM
Dewpoint 24.7 ° C

Date/timePositionNaut miles runAvg speedWind from/ knotsBaromVisibWave heightAir tempDewpointWater temp
2017-Sep-22 06:00N 10°12' W 079°30'24620.5 230 / 41014.010.8 29.824.7
2017-Sep-21 18:00N 13°48' W 077°30'25120.9 360 / 51014.010.8 29.824.7
2017-Sep-21 06:00N 17°24' W 075°18'24120.1 020 / 251014.010.8 29.024.0
2017-Sep-20 18:00N 21°18' W 074°18'23919.9 050 / 121017.027.0 31.524.9
2017-Sep-20 06:00N 25°12' W 075°12'25321.1 110 / 101017.010.8 29.823.6
2017-Sep-19 18:00N 29°12' W 076°42'20719.3 020 / 61017.010.8 31.022.3
2017-Sep-19 07:16N 31°29' W 079°42'1020.3
2017-Sep-19 06:47N 31°34' W 079°51'720.5
2017-Sep-19 06:28N 31°38' W 079°58'920.5
2017-Sep-19 06:00N 31°43' W 080°07'1020.8
2017-Sep-19 05:30N 31°50' W 080°16'1019.6
2017-Sep-19 05:00N 31°56' W 080°25'917.9
2017-Sep-19 04:30N 31°56' W 080°36'713.9
2017-Sep-19 04:00N 31°58' W 080°44'713.8
2017-Sep-19 03:30N 32°02' W 080°51'611.9
2017-Sep-19 03:00N 32°04' W 080°57'4 7.1
2017-Sep-19 02:30N 32°06' W 081°01'3 6.6
2017-Sep-19 02:00N 32°05' W 081°04'2 4.6
2017-Sep-19 01:30N 32°06' W 081°07'2 3.6
2017-Sep-19 01:00N 32°07' W 081°08'1 1.9
2017-Sep-19 00:30N 32°08' W 081°09'0 0.0
2017-Sep-19 00:00N 32°08' W 081°09'0 0.0
2017-Sep-18 23:30N 32°08' W 081°09'0 0.0
2017-Sep-18 22:59N 32°08' W 081°09'0 0.0
2017-Sep-18 22:29N 32°08' W 081°09'0 0.0
2017-Sep-18 21:59N 32°08' W 081°09'0 0.0
2017-Sep-18 21:23N 32°08' W 081°09'0 0.0
2017-Sep-18 20:59N 32°08' W 081°09'0 0.0
2017-Sep-18 20:22N 32°08' W 081°09'0 0.0
2017-Sep-18 19:58N 32°08' W 081°09'0 0.0
2017-Sep-18 19:28N 32°08' W 081°09'0 0.0
2017-Sep-18 18:59N 32°08' W 081°09'0 0.0
2017-Sep-18 18:28N 32°08' W 081°09'0 0.0
2017-Sep-18 17:59N 32°08' W 081°09'0 0.0
2017-Sep-18 17:29N 32°08' W 081°09'0 0.0
2017-Sep-18 16:58N 32°08' W 081°09'0 0.0
2017-Sep-18 16:28N 32°08' W 081°09'0 0.0
2017-Sep-18 15:58N 32°08' W 081°09'0 0.0
2017-Sep-18 15:28N 32°08' W 081°09'0 0.0
2017-Sep-18 14:58N 32°08' W 081°09'0 0.0
2017-Sep-18 14:29N 32°08' W 081°09'0 0.0
2017-Sep-18 13:59N 32°08' W 081°09'0 0.0
2017-Sep-18 13:28N 32°08' W 081°09'0 0.0
2017-Sep-18 12:58N 32°08' W 081°09'0 0.0
2017-Sep-18 12:28N 32°08' W 081°09'0 0.0
2017-Sep-18 11:59N 32°08' W 081°09'0 0.0
2017-Sep-18 11:28N 32°08' W 081°09'0 0.0
2017-Sep-18 10:59N 32°08' W 081°09'0 0.0
2017-Sep-18 10:29N 32°08' W 081°09'0 0.0
2017-Sep-18 09:58N 32°08' W 081°09'0 0.0
2017-Sep-18 09:29N 32°08' W 081°09'0 0.0
2017-Sep-18 08:59N 32°08' W 081°09'0 0.0
2017-Sep-18 08:16N 32°08' W 081°09'0 0.0
2017-Sep-18 07:59N 32°08' W 081°09'0 0.0
2017-Sep-18 07:28N 32°08' W 081°09'0 0.0
2017-Sep-18 06:58N 32°08' W 081°09'0 0.0
2017-Sep-18 06:19N 32°08' W 081°09'0 0.0
2017-Sep-18 05:37N 32°08' W 081°09'0 0.0
2017-Sep-18 05:25N 32°08' W 081°09'0 0.0
2017-Sep-18 04:55N 32°08' W 081°09'0 0.0
2017-Sep-18 04:25N 32°08' W 081°09'0 0.0
2017-Sep-18 03:55N 32°08' W 081°09'0 0.0
2017-Sep-18 03:25N 32°08' W 081°09'0 0.0
2017-Sep-18 02:55N 32°08' W 081°09'0 0.0
2017-Sep-18 02:13N 32°08' W 081°09'0 0.0
2017-Sep-18 01:55N 32°08' W 081°09'0 0.0
2017-Sep-18 01:19N 32°08' W 081°09'0 0.0
2017-Sep-18 00:55N 32°08' W 081°09'0 0.0
2017-Sep-18 00:19N 32°08' W 081°09'0 0.0
2017-Sep-17 23:49N 32°08' W 081°09'0 0.0
2017-Sep-17 23:25N 32°08' W 081°09'0 0.0
2017-Sep-17 22:55N 32°08' W 081°09'0 0.0
2017-Sep-17 22:25N 32°08' W 081°09'0 0.0
2017-Sep-17 22:00N 32°08' W 081°09'0 0.5
2017-Sep-17 21:30N 32°08' W 081°08'2 3.7
2017-Sep-17 21:00N 32°06' W 081°07'3 5.2
2017-Sep-17 20:30N 32°05' W 081°05'3 6.3
2017-Sep-17 20:00N 32°05' W 081°01'4 7.8
2017-Sep-17 19:30N 32°04' W 080°57'5 9.0
2017-Sep-17 19:00N 32°02' W 080°52'510.7
2017-Sep-17 18:30N 31°59' W 080°47'713.7
2017-Sep-17 18:00N 31°56' W 080°39'4 7.3
2017-Sep-17 17:30N 31°56' W 080°35'4 8.8
2017-Sep-17 17:00N 31°56' W 080°30'5 9.9
2017-Sep-17 16:30N 31°58' W 080°24'0 0.2
2017-Sep-17 15:23N 31°58' W 080°24'0 0.0
2017-Sep-17 14:53N 31°58' W 080°24'0 0.1
2017-Sep-17 14:29N 31°58' W 080°24'0 0.0
2017-Sep-17 13:59N 31°58' W 080°24'0 0.0
2017-Sep-17 13:23N 31°58' W 080°24'0 0.0
2017-Sep-17 12:59N 31°58' W 080°24'0 0.0
2017-Sep-17 12:29N 31°58' W 080°24'0 0.0
2017-Sep-17 11:59N 31°58' W 080°24'0 0.0
2017-Sep-17 11:23N 31°58' W 080°24'0 0.0
2017-Sep-17 10:59N 31°58' W 080°24'0 0.0
2017-Sep-17 10:29N 31°58' W 080°25'0 0.1
2017-Sep-17 09:59N 31°58' W 080°25'0 0.1
2017-Sep-17 09:23N 31°58' W 080°25'0 0.1
2017-Sep-17 08:59N 31°58' W 080°25'0 0.0
2017-Sep-17 08:29N 31°58' W 080°25'0 0.0
2017-Sep-17 07:59N 31°58' W 080°25'0 0.0
2017-Sep-17 07:23N 31°58' W 080°25'0 0.0
2017-Sep-17 06:59N 31°58' W 080°25'0 0.0
2017-Sep-17 06:29N 31°58' W 080°25'0 0.1
2017-Sep-17 05:47N 31°58' W 080°25'0 0.0
2017-Sep-17 05:29N 31°58' W 080°25'0 0.0
2017-Sep-17 04:53N 31°58' W 080°25'0 0.0
2017-Sep-17 04:29N 31°58' W 080°25'0 0.1
2017-Sep-17 03:59N 31°58' W 080°25'0 0.1
2017-Sep-17 03:29N 31°58' W 080°24'0 0.1
2017-Sep-17 02:59N 31°58' W 080°24'0 0.0
2017-Sep-17 02:29N 31°58' W 080°24'0 0.0
2017-Sep-17 01:59N 31°58' W 080°24'0 0.0
2017-Sep-17 01:29N 31°58' W 080°24'0 0.0
2017-Sep-17 00:59N 31°58' W 080°24'0 0.1
2017-Sep-16 23:23N 31°58' W 080°25'0 0.0
2017-Sep-16 22:59N 31°58' W 080°25'0 0.1
2017-Sep-16 22:29N 31°58' W 080°25'0 0.0
2017-Sep-16 21:59N 31°58' W 080°25'0 0.0
2017-Sep-16 21:29N 31°58' W 080°25'0 0.0
2017-Sep-16 20:59N 31°58' W 080°25'0 0.0
2017-Sep-16 20:29N 31°58' W 080°25'0 0.0
2017-Sep-16 19:59N 31°58' W 080°25'0 0.0
2017-Sep-16 19:05N 31°58' W 080°25'0 0.1
2017-Sep-16 18:47N 31°58' W 080°25'0 0.4
2017-Sep-16 18:30N 31°58' W 080°25'3 6.7
2017-Sep-16 18:01N 31°58' W 080°21'714.2
2017-Sep-16 17:31N 31°59' W 080°13'714.4
2017-Sep-16 17:00N 32°02' W 080°05'714.2
2017-Sep-16 16:29N 32°05' W 079°56'814.1
2017-Sep-16 15:55N 32°09' W 079°48'714.0
2017-Sep-16 15:23N 32°12' W 079°40'16213.5
2017-Sep-16 03:22N 33°41' W 076°59'513.9
2017-Sep-16 03:00N 33°44' W 076°54'713.8
2017-Sep-16 02:30N 33°48' W 076°48'713.4
2017-Sep-16 02:00N 33°53' W 076°42'713.1
2017-Sep-16 01:30N 33°57' W 076°36'612.8
2017-Sep-16 01:00N 34°01' W 076°29'612.7
2017-Sep-16 00:30N 34°05' W 076°23'612.2
2017-Sep-16 00:00N 34°08' W 076°18'612.3
2017-Sep-15 23:30N 34°12' W 076°12'612.0
2017-Sep-15 23:00N 34°16' W 076°06'611.0
2017-Sep-15 22:26N 34°20' W 076°00'510.6
2017-Sep-15 21:57N 34°23' W 075°56'610.7
2017-Sep-15 21:26N 34°27' W 075°50'22116.7
2017-Sep-15 08:12N 37°53' W 074°12'419.3
2017-Sep-15 08:00N 37°57' W 074°11'1019.3
2017-Sep-15 07:30N 38°06' W 074°09'1319.0
2017-Sep-15 06:48N 38°19' W 074°05'618.7
2017-Sep-15 06:30N 38°25' W 074°03'611.4
2017-Sep-15 06:00N 38°30' W 074°00'3521.0 200 / 161017.010.8 22.021.7
2017-Sep-15 04:18N 39°05' W 073°53'618.6
2017-Sep-15 03:58N 39°11' W 073°52'918.8
2017-Sep-15 03:30N 39°20' W 073°52'918.8
2017-Sep-15 03:00N 39°29' W 073°52'1018.5
2017-Sep-15 02:28N 39°39' W 073°51'918.5
2017-Sep-15 02:00N 39°48' W 073°50'918.5
2017-Sep-15 01:30N 39°57' W 073°50'1018.3
2017-Sep-15 00:59N 40°07' W 073°49'918.4
2017-Sep-15 00:28N 40°16' W 073°49'817.4
2017-Sep-15 00:00N 40°24' W 073°49'5 9.9
2017-Sep-14 23:31N 40°28' W 073°52'814.8
2017-Sep-14 23:00N 40°32' W 074°01'713.9
2017-Sep-14 22:30N 40°38' W 074°03'3 6.8
2017-Sep-14 22:01N 40°39' W 074°08'2 4.1
2017-Sep-14 21:30N 40°41' W 074°08'0 1.0
2017-Sep-14 21:00N 40°41' W 074°09'0 0.0
2017-Sep-14 20:30N 40°41' W 074°09'0 0.0
2017-Sep-14 20:00N 40°41' W 074°09'0 0.0
2017-Sep-14 19:30N 40°41' W 074°09'0 0.0
2017-Sep-14 19:00N 40°41' W 074°09'0 0.0
2017-Sep-14 18:30N 40°41' W 074°09'0 0.0
2017-Sep-14 18:00N 40°41' W 074°09'0 0.0
2017-Sep-14 17:30N 40°41' W 074°09'0 0.0
2017-Sep-14 17:00N 40°41' W 074°09'0 0.0
2017-Sep-14 16:30N 40°41' W 074°09'0 0.0
2017-Sep-14 16:00N 40°41' W 074°09'0 0.0
2017-Sep-14 15:27N 40°41' W 074°09'0 0.0
2017-Sep-14 15:00N 40°41' W 074°09'0 0.0
2017-Sep-14 14:30N 40°41' W 074°09'0 0.0
2017-Sep-14 14:00N 40°41' W 074°09'0 0.0
2017-Sep-14 13:30N 40°41' W 074°09'0 0.0
2017-Sep-14 13:00N 40°41' W 074°09'0 0.0
2017-Sep-14 12:30N 40°41' W 074°09'0 0.0
2017-Sep-14 12:00N 40°41' W 074°09'0 0.0
2017-Sep-14 11:30N 40°41' W 074°09'0 0.0
2017-Sep-14 11:00N 40°41' W 074°09'0 0.0
2017-Sep-14 10:30N 40°41' W 074°09'0 0.0
2017-Sep-14 10:00N 40°41' W 074°09'0 0.1
2017-Sep-14 09:30N 40°41' W 074°09'0 0.1
2017-Sep-14 09:00N 40°41' W 074°09'0 0.0
2017-Sep-14 08:30N 40°41' W 074°09'0 0.0
2017-Sep-14 08:00N 40°41' W 074°09'0 0.0
2017-Sep-14 07:30N 40°41' W 074°09'0 0.0
2017-Sep-14 07:00N 40°41' W 074°09'0 0.0
2017-Sep-14 06:30N 40°41' W 074°09'0 0.0
2017-Sep-14 06:00N 40°41' W 074°09'0 0.0
2017-Sep-14 05:30N 40°41' W 074°09'0 0.0
2017-Sep-14 05:00N 40°41' W 074°09'0 0.0
2017-Sep-14 04:30N 40°41' W 074°09'0 0.0
2017-Sep-14 04:00N 40°41' W 074°09'0 0.0
2017-Sep-14 03:30N 40°41' W 074°09'0 0.0
2017-Sep-14 03:00N 40°41' W 074°09'0 0.0
2017-Sep-14 02:30N 40°41' W 074°09'0 0.1
2017-Sep-14 02:00N 40°41' W 074°09'0 0.0
2017-Sep-14 01:30N 40°41' W 074°09'0 0.0
2017-Sep-14 01:00N 40°41' W 074°09'0 0.1
2017-Sep-14 00:30N 40°41' W 074°09'0 0.1
2017-Sep-14 00:00N 40°41' W 074°09'0 0.0
2017-Sep-13 23:30N 40°41' W 074°09'0 0.0
2017-Sep-13 23:00N 40°41' W 074°09'0 0.0
2017-Sep-13 22:30N 40°41' W 074°09'0 0.0
2017-Sep-13 22:00N 40°41' W 074°09'0 0.0
2017-Sep-13 21:30N 40°41' W 074°09'0 0.0
2017-Sep-13 21:00N 40°41' W 074°09'0 0.0
2017-Sep-13 20:30N 40°41' W 074°09'0 0.0
2017-Sep-13 20:00N 40°41' W 074°09'0 0.0
2017-Sep-13 19:30N 40°41' W 074°09'0 0.0
2017-Sep-13 19:00N 40°41' W 074°09'0 0.0
2017-Sep-13 18:30N 40°41' W 074°09'0 0.0
2017-Sep-13 18:00N 40°41' W 074°09'0 0.0
2017-Sep-13 17:30N 40°41' W 074°09'0 0.0
2017-Sep-13 17:00N 40°41' W 074°09'0 0.0
2017-Sep-13 16:30N 40°41' W 074°09'0 0.0
2017-Sep-13 16:00N 40°41' W 074°09'0 0.0
2017-Sep-13 15:30N 40°41' W 074°09'1 1.5
2017-Sep-13 15:00N 40°40' W 074°08'2 3.7
2017-Sep-13 14:30N 40°39' W 074°08'4 7.1
2017-Sep-13 14:00N 40°39' W 074°04'4 8.5
2017-Sep-13 13:31N 40°35' W 074°02'4 8.1
2017-Sep-13 13:00N 40°31' W 073°60'4 7.1
2017-Sep-13 12:31N 40°30' W 073°55'510.3
2017-Sep-13 12:00N 40°27' W 073°49'4 7.3
2017-Sep-13 11:30N 40°28' W 073°44'4 7.1
2017-Sep-13 11:00N 40°29' W 073°40'0 0.0
2017-Sep-13 10:31N 40°29' W 073°40'0 0.0
2017-Sep-13 09:58N 40°29' W 073°40'0 0.0
2017-Sep-13 09:25N 40°29' W 073°40'0 0.0
2017-Sep-13 08:58N 40°29' W 073°40'0 0.0
2017-Sep-13 08:28N 40°29' W 073°40'0 0.0
2017-Sep-13 07:58N 40°29' W 073°40'0 0.0
2017-Sep-13 07:25N 40°29' W 073°40'0 0.0
2017-Sep-13 06:58N 40°29' W 073°40'0 0.0
2017-Sep-13 06:28N 40°29' W 073°40'0 0.1
2017-Sep-13 05:58N 40°29' W 073°40'0 0.0
2017-Sep-13 05:28N 40°29' W 073°40'0 0.1
2017-Sep-13 04:55N 40°29' W 073°40'0 0.0
2017-Sep-13 04:28N 40°29' W 073°40'0 0.0
2017-Sep-13 03:58N 40°29' W 073°40'0 0.0
2017-Sep-13 03:28N 40°29' W 073°40'0 0.0
2017-Sep-13 02:58N 40°29' W 073°40'0 0.0
2017-Sep-13 02:25N 40°29' W 073°40'0 0.0
2017-Sep-13 01:58N 40°29' W 073°40'0 0.0
2017-Sep-13 01:25N 40°29' W 073°40'0 0.0
2017-Sep-13 00:49N 40°29' W 073°40'0 0.0
2017-Sep-13 00:16N 40°29' W 073°40'0 0.1
2017-Sep-12 23:58N 40°29' W 073°40'0 0.0
2017-Sep-12 23:25N 40°29' W 073°40'0 0.0
2017-Sep-12 22:58N 40°29' W 073°40'0 0.0
2017-Sep-12 22:28N 40°29' W 073°40'0 0.0
2017-Sep-12 21:58N 40°29' W 073°40'0 0.0
2017-Sep-12 21:28N 40°29' W 073°40'0 0.0
2017-Sep-12 20:58N 40°29' W 073°40'0 0.0
2017-Sep-12 20:28N 40°29' W 073°40'0 0.0
2017-Sep-12 19:58N 40°29' W 073°40'0 0.0
2017-Sep-12 19:13N 40°29' W 073°40'0 0.0
2017-Sep-12 18:58N 40°29' W 073°40'0 0.1
2017-Sep-12 17:01N 40°29' W 073°40'0 0.0
2017-Sep-12 16:55N 40°29' W 073°40'0 0.1
2017-Sep-12 16:28N 40°29' W 073°40'0 0.1
2017-Sep-12 14:58N 40°29' W 073°40'0 0.1
2017-Sep-12 14:28N 40°29' W 073°40'0 0.0
2017-Sep-12 13:58N 40°29' W 073°40'0 0.1
2017-Sep-12 12:16N 40°29' W 073°40'0 0.2
2017-Sep-12 11:55N 40°29' W 073°40'0 0.2
2017-Sep-12 11:16N 40°29' W 073°40'0 0.1
2017-Sep-12 10:55N 40°29' W 073°40'0 0.1
2017-Sep-12 10:28N 40°29' W 073°40'0 0.0
2017-Sep-12 09:55N 40°29' W 073°40'0 0.1
2017-Sep-12 09:28N 40°29' W 073°40'0 0.0
2017-Sep-12 08:58N 40°29' W 073°40'0 0.0
2017-Sep-12 08:28N 40°29' W 073°40'0 0.0
2017-Sep-12 07:58N 40°29' W 073°40'0 0.0
2017-Sep-12 07:28N 40°29' W 073°40'0 0.0
2017-Sep-12 06:58N 40°29' W 073°40'0 0.0
2017-Sep-12 06:25N 40°29' W 073°40'  
Track history (hours):
 
Tides and Currents Weather Stations Pressure Air Temp Water Temp Dewpoint Dewpoint Depression Visibility Wind Speed Wind Dir Waves Ship Positions

Ever Legion

Last reported at 2017-Sep-22 06:00 UTC. Time now 2017-Sep-24 10:16 UTC.
Position N 10°12' W 079°30'.

Length 335 m; draft 12.1 m.

Type: Ship (hazmat cat A). MMSI: 566970000.

Wind from 230 at 4 knots

Barometer 1014.0 mb
Air temperature 29.8 ° C
Visibility: greater than 10.8 NM
Dewpoint 24.7 ° C

Date/timePositionNaut miles runAvg speedWind from/ knotsBaromVisibWave heightAir tempDewpointWater temp
2017-Sep-22 06:00N 10°12' W 079°30'24620.5 230 / 41014.010.8 29.824.7
2017-Sep-21 18:00N 13°48' W 077°30'25120.9 360 / 51014.010.8 29.824.7
2017-Sep-21 06:00N 17°24' W 075°18'24120.1 020 / 251014.010.8 29.024.0
2017-Sep-20 18:00N 21°18' W 074°18'23919.9 050 / 121017.027.0 31.524.9
2017-Sep-20 06:00N 25°12' W 075°12'25321.1 110 / 101017.010.8 29.823.6
2017-Sep-19 18:00N 29°12' W 076°42'20719.3 020 / 61017.010.8 31.022.3
2017-Sep-19 07:16N 31°29' W 079°42'1020.3
2017-Sep-19 06:47N 31°34' W 079°51'720.5
2017-Sep-19 06:28N 31°38' W 079°58'920.5
2017-Sep-19 06:00N 31°43' W 080°07'1020.8
2017-Sep-19 05:30N 31°50' W 080°16'1019.6
2017-Sep-19 05:00N 31°56' W 080°25'917.9
2017-Sep-19 04:30N 31°56' W 080°36'713.9
2017-Sep-19 04:00N 31°58' W 080°44'713.8
2017-Sep-19 03:30N 32°02' W 080°51'611.9
2017-Sep-19 03:00N 32°04' W 080°57'4 7.1
2017-Sep-19 02:30N 32°06' W 081°01'3 6.6
2017-Sep-19 02:00N 32°05' W 081°04'2 4.6
2017-Sep-19 01:30N 32°06' W 081°07'2 3.6
2017-Sep-19 01:00N 32°07' W 081°08'1 1.9
2017-Sep-19 00:30N 32°08' W 081°09'0 0.0
2017-Sep-19 00:00N 32°08' W 081°09'0 0.0
2017-Sep-18 23:30N 32°08' W 081°09'0 0.0
2017-Sep-18 22:59N 32°08' W 081°09'0 0.0
2017-Sep-18 22:29N 32°08' W 081°09'0 0.0
2017-Sep-18 21:59N 32°08' W 081°09'0 0.0
2017-Sep-18 21:23N 32°08' W 081°09'0 0.0
2017-Sep-18 20:59N 32°08' W 081°09'0 0.0
2017-Sep-18 20:22N 32°08' W 081°09'0 0.0
2017-Sep-18 19:58N 32°08' W 081°09'0 0.0
2017-Sep-18 19:28N 32°08' W 081°09'0 0.0
2017-Sep-18 18:59N 32°08' W 081°09'0 0.0
2017-Sep-18 18:28N 32°08' W 081°09'0 0.0
2017-Sep-18 17:59N 32°08' W 081°09'0 0.0
2017-Sep-18 17:29N 32°08' W 081°09'0 0.0
2017-Sep-18 16:58N 32°08' W 081°09'0 0.0
2017-Sep-18 16:28N 32°08' W 081°09'0 0.0
2017-Sep-18 15:58N 32°08' W 081°09'0 0.0
2017-Sep-18 15:28N 32°08' W 081°09'0 0.0
2017-Sep-18 14:58N 32°08' W 081°09'0 0.0
2017-Sep-18 14:29N 32°08' W 081°09'0 0.0
2017-Sep-18 13:59N 32°08' W 081°09'0 0.0
2017-Sep-18 13:28N 32°08' W 081°09'0 0.0
2017-Sep-18 12:58N 32°08' W 081°09'0 0.0
2017-Sep-18 12:28N 32°08' W 081°09'0 0.0
2017-Sep-18 11:59N 32°08' W 081°09'0 0.0
2017-Sep-18 11:28N 32°08' W 081°09'0 0.0
2017-Sep-18 10:59N 32°08' W 081°09'0 0.0
2017-Sep-18 10:29N 32°08' W 081°09'0 0.0
2017-Sep-18 09:58N 32°08' W 081°09'0 0.0
2017-Sep-18 09:29N 32°08' W 081°09'0 0.0
2017-Sep-18 08:59N 32°08' W 081°09'0 0.0
2017-Sep-18 08:16N 32°08' W 081°09'0 0.0
2017-Sep-18 07:59N 32°08' W 081°09'0 0.0
2017-Sep-18 07:28N 32°08' W 081°09'0 0.0
2017-Sep-18 06:58N 32°08' W 081°09'0 0.0
2017-Sep-18 06:19N 32°08' W 081°09'0 0.0
2017-Sep-18 05:37N 32°08' W 081°09'0 0.0
2017-Sep-18 05:25N 32°08' W 081°09'0 0.0
2017-Sep-18 04:55N 32°08' W 081°09'0 0.0
2017-Sep-18 04:25N 32°08' W 081°09'0 0.0
2017-Sep-18 03:55N 32°08' W 081°09'0 0.0
2017-Sep-18 03:25N 32°08' W 081°09'0 0.0
2017-Sep-18 02:55N 32°08' W 081°09'0 0.0
2017-Sep-18 02:13N 32°08' W 081°09'0 0.0
2017-Sep-18 01:55N 32°08' W 081°09'0 0.0
2017-Sep-18 01:19N 32°08' W 081°09'0 0.0
2017-Sep-18 00:55N 32°08' W 081°09'0 0.0
2017-Sep-18 00:19N 32°08' W 081°09'0 0.0
2017-Sep-17 23:49N 32°08' W 081°09'0 0.0
2017-Sep-17 23:25N 32°08' W 081°09'0 0.0
2017-Sep-17 22:55N 32°08' W 081°09'0 0.0
2017-Sep-17 22:25N 32°08' W 081°09'0 0.0
2017-Sep-17 22:00N 32°08' W 081°09'0 0.5
2017-Sep-17 21:30N 32°08' W 081°08'2 3.7
2017-Sep-17 21:00N 32°06' W 081°07'3 5.2
2017-Sep-17 20:30N 32°05' W 081°05'3 6.3
2017-Sep-17 20:00N 32°05' W 081°01'4 7.8
2017-Sep-17 19:30N 32°04' W 080°57'5 9.0
2017-Sep-17 19:00N 32°02' W 080°52'510.7
2017-Sep-17 18:30N 31°59' W 080°47'713.7
2017-Sep-17 18:00N 31°56' W 080°39'4 7.3
2017-Sep-17 17:30N 31°56' W 080°35'4 8.8
2017-Sep-17 17:00N 31°56' W 080°30'5 9.9
2017-Sep-17 16:30N 31°58' W 080°24'0 0.2
2017-Sep-17 15:23N 31°58' W 080°24'0 0.0
2017-Sep-17 14:53N 31°58' W 080°24'0 0.1
2017-Sep-17 14:29N 31°58' W 080°24'0 0.0
2017-Sep-17 13:59N 31°58' W 080°24'0 0.0
2017-Sep-17 13:23N 31°58' W 080°24'0 0.0
2017-Sep-17 12:59N 31°58' W 080°24'0 0.0
2017-Sep-17 12:29N 31°58' W 080°24'0 0.0
2017-Sep-17 11:59N 31°58' W 080°24'0 0.0
2017-Sep-17 11:23N 31°58' W 080°24'0 0.0
2017-Sep-17 10:59N 31°58' W 080°24'0 0.0
2017-Sep-17 10:29N 31°58' W 080°25'0 0.1
2017-Sep-17 09:59N 31°58' W 080°25'0 0.1
2017-Sep-17 09:23N 31°58' W 080°25'0 0.1
2017-Sep-17 08:59N 31°58' W 080°25'0 0.0
2017-Sep-17 08:29N 31°58' W 080°25'0 0.0
2017-Sep-17 07:59N 31°58' W 080°25'0 0.0
2017-Sep-17 07:23N 31°58' W 080°25'0 0.0
2017-Sep-17 06:59N 31°58' W 080°25'0 0.0
2017-Sep-17 06:29N 31°58' W 080°25'0 0.1
2017-Sep-17 05:47N 31°58' W 080°25'0 0.0
2017-Sep-17 05:29N 31°58' W 080°25'0 0.0
2017-Sep-17 04:53N 31°58' W 080°25'0 0.0
2017-Sep-17 04:29N 31°58' W 080°25'0 0.1
2017-Sep-17 03:59N 31°58' W 080°25'0 0.1
2017-Sep-17 03:29N 31°58' W 080°24'0 0.1
2017-Sep-17 02:59N 31°58' W 080°24'0 0.0
2017-Sep-17 02:29N 31°58' W 080°24'0 0.0
2017-Sep-17 01:59N 31°58' W 080°24'0 0.0
2017-Sep-17 01:29N 31°58' W 080°24'0 0.0
2017-Sep-17 00:59N 31°58' W 080°24'0 0.1
2017-Sep-16 23:23N 31°58' W 080°25'0 0.0
2017-Sep-16 22:59N 31°58' W 080°25'0 0.1
2017-Sep-16 22:29N 31°58' W 080°25'0 0.0
2017-Sep-16 21:59N 31°58' W 080°25'0 0.0
2017-Sep-16 21:29N 31°58' W 080°25'0 0.0
2017-Sep-16 20:59N 31°58' W 080°25'0 0.0
2017-Sep-16 20:29N 31°58' W 080°25'0 0.0
2017-Sep-16 19:59N 31°58' W 080°25'0 0.0
2017-Sep-16 19:05N 31°58' W 080°25'0 0.1
2017-Sep-16 18:47N 31°58' W 080°25'0 0.4
2017-Sep-16 18:30N 31°58' W 080°25'3 6.7
2017-Sep-16 18:01N 31°58' W 080°21'714.2
2017-Sep-16 17:31N 31°59' W 080°13'714.4
2017-Sep-16 17:00N 32°02' W 080°05'714.2
2017-Sep-16 16:29N 32°05' W 079°56'814.1
2017-Sep-16 15:55N 32°09' W 079°48'714.0
2017-Sep-16 15:23N 32°12' W 079°40'16213.5
2017-Sep-16 03:22N 33°41' W 076°59'513.9
2017-Sep-16 03:00N 33°44' W 076°54'713.8
2017-Sep-16 02:30N 33°48' W 076°48'713.4
2017-Sep-16 02:00N 33°53' W 076°42'713.1
2017-Sep-16 01:30N 33°57' W 076°36'612.8
2017-Sep-16 01:00N 34°01' W 076°29'612.7
2017-Sep-16 00:30N 34°05' W 076°23'612.2
2017-Sep-16 00:00N 34°08' W 076°18'612.3
2017-Sep-15 23:30N 34°12' W 076°12'612.0
2017-Sep-15 23:00N 34°16' W 076°06'611.0
2017-Sep-15 22:26N 34°20' W 076°00'510.6
2017-Sep-15 21:57N 34°23' W 075°56'610.7
2017-Sep-15 21:26N 34°27' W 075°50'22116.7
2017-Sep-15 08:12N 37°53' W 074°12'419.3
2017-Sep-15 08:00N 37°57' W 074°11'1019.3
2017-Sep-15 07:30N 38°06' W 074°09'1319.0
2017-Sep-15 06:48N 38°19' W 074°05'618.7
2017-Sep-15 06:30N 38°25' W 074°03'611.4
2017-Sep-15 06:00N 38°30' W 074°00'3521.0 200 / 161017.010.8 22.021.7
2017-Sep-15 04:18N 39°05' W 073°53'618.6
2017-Sep-15 03:58N 39°11' W 073°52'918.8
2017-Sep-15 03:30N 39°20' W 073°52'918.8
2017-Sep-15 03:00N 39°29' W 073°52'1018.5
2017-Sep-15 02:28N 39°39' W 073°51'918.5
2017-Sep-15 02:00N 39°48' W 073°50'918.5
2017-Sep-15 01:30N 39°57' W 073°50'1018.3
2017-Sep-15 00:59N 40°07' W 073°49'918.4
2017-Sep-15 00:28N 40°16' W 073°49'817.4
2017-Sep-15 00:00N 40°24' W 073°49'5 9.9
2017-Sep-14 23:31N 40°28' W 073°52'814.8
2017-Sep-14 23:00N 40°32' W 074°01'713.9
2017-Sep-14 22:30N 40°38' W 074°03'3 6.8
2017-Sep-14 22:01N 40°39' W 074°08'2 4.1
2017-Sep-14 21:30N 40°41' W 074°08'0 1.0
2017-Sep-14 21:00N 40°41' W 074°09'0 0.0
2017-Sep-14 20:30N 40°41' W 074°09'0 0.0
2017-Sep-14 20:00N 40°41' W 074°09'0 0.0
2017-Sep-14 19:30N 40°41' W 074°09'0 0.0
2017-Sep-14 19:00N 40°41' W 074°09'0 0.0
2017-Sep-14 18:30N 40°41' W 074°09'0 0.0
2017-Sep-14 18:00N 40°41' W 074°09'0 0.0
2017-Sep-14 17:30N 40°41' W 074°09'0 0.0
2017-Sep-14 17:00N 40°41' W 074°09'0 0.0
2017-Sep-14 16:30N 40°41' W 074°09'0 0.0
2017-Sep-14 16:00N 40°41' W 074°09'0 0.0
2017-Sep-14 15:27N 40°41' W 074°09'0 0.0
2017-Sep-14 15:00N 40°41' W 074°09'0 0.0
2017-Sep-14 14:30N 40°41' W 074°09'0 0.0
2017-Sep-14 14:00N 40°41' W 074°09'0 0.0
2017-Sep-14 13:30N 40°41' W 074°09'0 0.0
2017-Sep-14 13:00N 40°41' W 074°09'0 0.0
2017-Sep-14 12:30N 40°41' W 074°09'0 0.0
2017-Sep-14 12:00N 40°41' W 074°09'0 0.0
2017-Sep-14 11:30N 40°41' W 074°09'0 0.0
2017-Sep-14 11:00N 40°41' W 074°09'0 0.0
2017-Sep-14 10:30N 40°41' W 074°09'0 0.0
2017-Sep-14 10:00N 40°41' W 074°09'0 0.1
2017-Sep-14 09:30N 40°41' W 074°09'0 0.1
2017-Sep-14 09:00N 40°41' W 074°09'0 0.0
2017-Sep-14 08:30N 40°41' W 074°09'0 0.0
2017-Sep-14 08:00N 40°41' W 074°09'0 0.0
2017-Sep-14 07:30N 40°41' W 074°09'0 0.0
2017-Sep-14 07:00N 40°41' W 074°09'0 0.0
2017-Sep-14 06:30N 40°41' W 074°09'0 0.0
2017-Sep-14 06:00N 40°41' W 074°09'0 0.0
2017-Sep-14 05:30N 40°41' W 074°09'0 0.0
2017-Sep-14 05:00N 40°41' W 074°09'0 0.0
2017-Sep-14 04:30N 40°41' W 074°09'0 0.0
2017-Sep-14 04:00N 40°41' W 074°09'0 0.0
2017-Sep-14 03:30N 40°41' W 074°09'0 0.0
2017-Sep-14 03:00N 40°41' W 074°09'0 0.0
2017-Sep-14 02:30N 40°41' W 074°09'0 0.1
2017-Sep-14 02:00N 40°41' W 074°09'0 0.0
2017-Sep-14 01:30N 40°41' W 074°09'0 0.0
2017-Sep-14 01:00N 40°41' W 074°09'0 0.1
2017-Sep-14 00:30N 40°41' W 074°09'0 0.1
2017-Sep-14 00:00N 40°41' W 074°09'0 0.0
2017-Sep-13 23:30N 40°41' W 074°09'0 0.0
2017-Sep-13 23:00N 40°41' W 074°09'0 0.0
2017-Sep-13 22:30N 40°41' W 074°09'0 0.0
2017-Sep-13 22:00N 40°41' W 074°09'0 0.0
2017-Sep-13 21:30N 40°41' W 074°09'0 0.0
2017-Sep-13 21:00N 40°41' W 074°09'0 0.0
2017-Sep-13 20:30N 40°41' W 074°09'0 0.0
2017-Sep-13 20:00N 40°41' W 074°09'0 0.0
2017-Sep-13 19:30N 40°41' W 074°09'0 0.0
2017-Sep-13 19:00N 40°41' W 074°09'0 0.0
2017-Sep-13 18:30N 40°41' W 074°09'0 0.0
2017-Sep-13 18:00N 40°41' W 074°09'0 0.0
2017-Sep-13 17:30N 40°41' W 074°09'0 0.0
2017-Sep-13 17:00N 40°41' W 074°09'0 0.0
2017-Sep-13 16:30N 40°41' W 074°09'0 0.0
2017-Sep-13 16:00N 40°41' W 074°09'0 0.0
2017-Sep-13 15:30N 40°41' W 074°09'1 1.5
2017-Sep-13 15:00N 40°40' W 074°08'2 3.7
2017-Sep-13 14:30N 40°39' W 074°08'4 7.1
2017-Sep-13 14:00N 40°39' W 074°04'4 8.5
2017-Sep-13 13:31N 40°35' W 074°02'4 8.1
2017-Sep-13 13:00N 40°31' W 073°60'4 7.1
2017-Sep-13 12:31N 40°30' W 073°55'510.3
2017-Sep-13 12:00N 40°27' W 073°49'4 7.3
2017-Sep-13 11:30N 40°28' W 073°44'4 7.1
2017-Sep-13 11:00N 40°29' W 073°40'0 0.0
2017-Sep-13 10:31N 40°29' W 073°40'0 0.0
2017-Sep-13 09:58N 40°29' W 073°40'0 0.0
2017-Sep-13 09:25N 40°29' W 073°40'0 0.0
2017-Sep-13 08:58N 40°29' W 073°40'0 0.0
2017-Sep-13 08:28N 40°29' W 073°40'0 0.0
2017-Sep-13 07:58N 40°29' W 073°40'0 0.0
2017-Sep-13 07:25N 40°29' W 073°40'0 0.0
2017-Sep-13 06:58N 40°29' W 073°40'0 0.0
2017-Sep-13 06:28N 40°29' W 073°40'0 0.1
2017-Sep-13 05:58N 40°29' W 073°40'0 0.0
2017-Sep-13 05:28N 40°29' W 073°40'0 0.1
2017-Sep-13 04:55N 40°29' W 073°40'0 0.0
2017-Sep-13 04:28N 40°29' W 073°40'0 0.0
2017-Sep-13 03:58N 40°29' W 073°40'0 0.0
2017-Sep-13 03:28N 40°29' W 073°40'0 0.0
2017-Sep-13 02:58N 40°29' W 073°40'0 0.0
2017-Sep-13 02:25N 40°29' W 073°40'0 0.0
2017-Sep-13 01:58N 40°29' W 073°40'0 0.0
2017-Sep-13 01:25N 40°29' W 073°40'0 0.0
2017-Sep-13 00:49N 40°29' W 073°40'0 0.0
2017-Sep-13 00:16N 40°29' W 073°40'0 0.1
2017-Sep-12 23:58N 40°29' W 073°40'0 0.0
2017-Sep-12 23:25N 40°29' W 073°40'0 0.0
2017-Sep-12 22:58N 40°29' W 073°40'0 0.0
2017-Sep-12 22:28N 40°29' W 073°40'0 0.0
2017-Sep-12 21:58N 40°29' W 073°40'0 0.0
2017-Sep-12 21:28N 40°29' W 073°40'0 0.0
2017-Sep-12 20:58N 40°29' W 073°40'0 0.0
2017-Sep-12 20:28N 40°29' W 073°40'0 0.0
2017-Sep-12 19:58N 40°29' W 073°40'0 0.0
2017-Sep-12 19:13N 40°29' W 073°40'0 0.0
2017-Sep-12 18:58N 40°29' W 073°40'0 0.1
2017-Sep-12 17:01N 40°29' W 073°40'0 0.0
2017-Sep-12 16:55N 40°29' W 073°40'0 0.1
2017-Sep-12 16:28N 40°29' W 073°40'0 0.1
2017-Sep-12 14:58N 40°29' W 073°40'0 0.1
2017-Sep-12 14:28N 40°29' W 073°40'0 0.0
2017-Sep-12 13:58N 40°29' W 073°40'0 0.1
2017-Sep-12 12:16N 40°29' W 073°40'0 0.2
2017-Sep-12 11:55N 40°29' W 073°40'0 0.2
2017-Sep-12 11:16N 40°29' W 073°40'0 0.1
2017-Sep-12 10:55N 40°29' W 073°40'0 0.1
2017-Sep-12 10:28N 40°29' W 073°40'0 0.0
2017-Sep-12 09:55N 40°29' W 073°40'0 0.1
2017-Sep-12 09:28N 40°29' W 073°40'0 0.0
2017-Sep-12 08:58N 40°29' W 073°40'0 0.0
2017-Sep-12 08:28N 40°29' W 073°40'0 0.0
2017-Sep-12 07:58N 40°29' W 073°40'0 0.0
2017-Sep-12 07:28N 40°29' W 073°40'0 0.0
2017-Sep-12 06:58N 40°29' W 073°40'0 0.0
2017-Sep-12 06:25N 40°29' W 073°40'  

Dump ship's entire track history